sensor_id;sensor_type;location;lat;lon;timestamp;pressure;altitude;pressure_sealevel;temperature;humidity
79037;BME280;68434;59.896;30.474;2023-05-10T00:00:14;102421.03;;;10.06;37.39
79037;BME280;68434;59.896;30.474;2023-05-10T00:02:43;102425.78;;;10.02;37.34
79037;BME280;68434;59.896;30.474;2023-05-10T00:05:10;102429.78;;;9.84;38.61
79037;BME280;68434;59.896;30.474;2023-05-10T00:07:38;102421.78;;;9.83;38.06
79037;BME280;68434;59.896;30.474;2023-05-10T00:10:06;102423.72;;;9.81;38.22
79037;BME280;68434;59.896;30.474;2023-05-10T00:12:34;102423.94;;;9.78;37.99
79037;BME280;68434;59.896;30.474;2023-05-10T00:15:04;102423.09;;;9.77;38.04
79037;BME280;68434;59.896;30.474;2023-05-10T00:17:33;102427.97;;;9.72;38.36
79037;BME280;68434;59.896;30.474;2023-05-10T00:20:00;102427.97;;;9.72;38.11
79037;BME280;68434;59.896;30.474;2023-05-10T00:22:31;102426.25;;;9.71;38.59
79037;BME280;68434;59.896;30.474;2023-05-10T00:24:58;102426.34;;;9.70;38.07
79037;BME280;68434;59.896;30.474;2023-05-10T00:27:26;102414.56;;;9.71;38.83
79037;BME280;68434;59.896;30.474;2023-05-10T00:29:54;102418.47;;;9.67;37.87
79037;BME280;68434;59.896;30.474;2023-05-10T00:32:22;102424.81;;;9.66;38.58
79037;BME280;68434;59.896;30.474;2023-05-10T00:34:50;102414.13;;;9.64;38.99
79037;BME280;68434;59.896;30.474;2023-05-10T00:37:17;102416.09;;;9.62;38.99
79037;BME280;68434;59.896;30.474;2023-05-10T00:39:45;102417.03;;;9.61;38.75
79037;BME280;68434;59.896;30.474;2023-05-10T00:42:13;102424.81;;;9.40;38.89
79037;BME280;68434;59.896;30.474;2023-05-10T00:44:41;102417.59;;;9.41;39.54
79037;BME280;68434;59.896;30.474;2023-05-10T00:47:08;102417.50;;;9.42;39.36
79037;BME280;68434;59.896;30.474;2023-05-10T00:49:38;102409.28;;;9.44;39.46
79037;BME280;68434;59.896;30.474;2023-05-10T00:52:06;102416.06;;;9.49;39.63
79037;BME280;68434;59.896;30.474;2023-05-10T00:54:34;102421.38;;;9.51;39.65
79037;BME280;68434;59.896;30.474;2023-05-10T00:57:02;102411.34;;;9.53;39.78
79037;BME280;68434;59.896;30.474;2023-05-10T00:59:30;102406.03;;;9.51;39.09
79037;BME280;68434;59.896;30.474;2023-05-10T01:01:58;102407.88;;;9.51;39.31
79037;BME280;68434;59.896;30.474;2023-05-10T01:04:26;102413.47;;;9.48;39.87
79037;BME280;68434;59.896;30.474;2023-05-10T01:06:55;102409.69;;;9.50;39.62
79037;BME280;68434;59.896;30.474;2023-05-10T01:09:23;102415.31;;;9.47;40.40
79037;BME280;68434;59.896;30.474;2023-05-10T01:11:53;102419.22;;;9.43;40.28
79037;BME280;68434;59.896;30.474;2023-05-10T01:14:22;102415.75;;;9.41;40.76
79037;BME280;68434;59.896;30.474;2023-05-10T01:16:50;102418.75;;;9.37;41.20
79037;BME280;68434;59.896;30.474;2023-05-10T01:19:22;102427.28;;;9.31;40.86
79037;BME280;68434;59.896;30.474;2023-05-10T01:22:00;102415.97;;;9.26;41.42
79037;BME280;68434;59.896;30.474;2023-05-10T01:25:02;102426.22;;;9.21;41.25
79037;BME280;68434;59.896;30.474;2023-05-10T01:28:04;102422.09;;;9.15;41.46
79037;BME280;68434;59.896;30.474;2023-05-10T01:30:49;102419.72;;;9.11;41.61
79037;BME280;68434;59.896;30.474;2023-05-10T01:33:26;102421.66;;;9.09;41.22
79037;BME280;68434;59.896;30.474;2023-05-10T01:36:00;102416.00;;;8.99;41.84
79037;BME280;68434;59.896;30.474;2023-05-10T01:38:44;102419.78;;;8.97;42.52
79037;BME280;68434;59.896;30.474;2023-05-10T01:41:19;102421.72;;;8.95;42.72
79037;BME280;68434;59.896;30.474;2023-05-10T01:43:53;102420.41;;;8.88;42.25
79037;BME280;68434;59.896;30.474;2023-05-10T01:46:27;102414.91;;;8.89;41.74
79037;BME280;68434;59.896;30.474;2023-05-10T01:48:59;102412.56;;;8.97;41.52
79037;BME280;68434;59.896;30.474;2023-05-10T01:51:33;102407.47;;;8.93;41.54
79037;BME280;68434;59.896;30.474;2023-05-10T01:54:05;102405.09;;;8.88;42.19
79037;BME280;68434;59.896;30.474;2023-05-10T01:56:35;102408.00;;;8.85;43.05
79037;BME280;68434;59.896;30.474;2023-05-10T01:59:06;102407.88;;;8.87;43.11
79037;BME280;68434;59.896;30.474;2023-05-10T02:01:36;102405.28;;;8.85;42.75
79037;BME280;68434;59.896;30.474;2023-05-10T02:04:08;102409.81;;;8.85;42.57
79037;BME280;68434;59.896;30.474;2023-05-10T02:06:38;102410.13;;;8.80;43.11
79037;BME280;68434;59.896;30.474;2023-05-10T02:09:07;102407.53;;;8.79;44.00
79037;BME280;68434;59.896;30.474;2023-05-10T02:11:37;102420.25;;;8.77;44.07
79037;BME280;68434;59.896;30.474;2023-05-10T02:14:08;102413.81;;;8.79;44.15
79037;BME280;68434;59.896;30.474;2023-05-10T02:16:38;102415.72;;;8.77;44.04
79037;BME280;68434;59.896;30.474;2023-05-10T02:19:08;102414.22;;;8.73;44.09
79037;BME280;68434;59.896;30.474;2023-05-10T02:21:57;102409.56;;;8.75;44.14
79037;BME280;68434;59.896;30.474;2023-05-10T02:24:27;102407.94;;;8.73;44.53
79037;BME280;68434;59.896;30.474;2023-05-10T02:26:56;102416.50;;;8.79;44.03
79037;BME280;68434;59.896;30.474;2023-05-10T02:29:25;102424.59;;;8.79;43.86
79037;BME280;68434;59.896;30.474;2023-05-10T02:31:55;102415.63;;;8.79;43.42
79037;BME280;68434;59.896;30.474;2023-05-10T02:34:27;102421.91;;;8.79;43.49
79037;BME280;68434;59.896;30.474;2023-05-10T02:36:55;102423.63;;;8.80;44.53
79037;BME280;68434;59.896;30.474;2023-05-10T02:39:24;102415.53;;;8.80;44.64
79037;BME280;68434;59.896;30.474;2023-05-10T02:41:54;102425.66;;;8.77;44.56
79037;BME280;68434;59.896;30.474;2023-05-10T02:44:23;102422.50;;;8.70;44.64
79037;BME280;68434;59.896;30.474;2023-05-10T02:46:54;102422.72;;;8.67;45.28
79037;BME280;68434;59.896;30.474;2023-05-10T02:49:25;102414.94;;;8.63;44.38
79037;BME280;68434;59.896;30.474;2023-05-10T02:52:00;102423.66;;;8.66;44.04
79037;BME280;68434;59.896;30.474;2023-05-10T02:54:32;102421.16;;;8.63;44.43
79037;BME280;68434;59.896;30.474;2023-05-10T02:57:04;102423.03;;;8.63;44.61
79037;BME280;68434;59.896;30.474;2023-05-10T02:59:33;102419.72;;;8.72;44.49
79037;BME280;68434;59.896;30.474;2023-05-10T03:02:01;102422.94;;;8.77;44.33
79037;BME280;68434;59.896;30.474;2023-05-10T03:04:31;102418.31;;;8.79;44.64
79037;BME280;68434;59.896;30.474;2023-05-10T03:06:59;102421.69;;;8.82;44.01
79037;BME280;68434;59.896;30.474;2023-05-10T03:09:27;102431.50;;;8.83;44.01
79037;BME280;68434;59.896;30.474;2023-05-10T03:11:56;102422.63;;;8.81;44.61
79037;BME280;68434;59.896;30.474;2023-05-10T03:14:39;102427.94;;;8.83;44.85
79037;BME280;68434;59.896;30.474;2023-05-10T03:17:11;102424.94;;;8.87;44.85
79037;BME280;68434;59.896;30.474;2023-05-10T03:19:48;102427.22;;;8.93;45.02
79037;BME280;68434;59.896;30.474;2023-05-10T03:22:24;102425.06;;;8.98;45.27
79037;BME280;68434;59.896;30.474;2023-05-10T03:24:54;102425.44;;;9.06;45.03
79037;BME280;68434;59.896;30.474;2023-05-10T03:27:26;102429.63;;;9.10;44.92
79037;BME280;68434;59.896;30.474;2023-05-10T03:29:55;102429.84;;;9.07;45.61
79037;BME280;68434;59.896;30.474;2023-05-10T03:32:24;102421.34;;;9.13;45.56
79037;BME280;68434;59.896;30.474;2023-05-10T03:34:54;102421.78;;;9.20;45.62
79037;BME280;68434;59.896;30.474;2023-05-10T03:37:24;102423.63;;;9.32;44.89
79037;BME280;68434;59.896;30.474;2023-05-10T03:39:51;102422.88;;;9.42;44.86
79037;BME280;68434;59.896;30.474;2023-05-10T03:42:19;102425.78;;;9.52;45.11
79037;BME280;68434;59.896;30.474;2023-05-10T03:44:47;102428.06;;;9.58;44.18
79037;BME280;68434;59.896;30.474;2023-05-10T03:47:15;102421.91;;;9.69;43.48
79037;BME280;68434;59.896;30.474;2023-05-10T03:49:43;102413.03;;;9.79;43.79
79037;BME280;68434;59.896;30.474;2023-05-10T03:52:13;102419.53;;;9.89;43.30
79037;BME280;68434;59.896;30.474;2023-05-10T03:54:41;102417.13;;;9.97;42.52
79037;BME280;68434;59.896;30.474;2023-05-10T03:57:09;102417.56;;;10.04;42.97
79037;BME280;68434;59.896;30.474;2023-05-10T03:59:37;102412.59;;;10.10;42.57
79037;BME280;68434;59.896;30.474;2023-05-10T04:02:04;102411.94;;;10.19;41.90
79037;BME280;68434;59.896;30.474;2023-05-10T04:04:32;102421.31;;;10.26;42.46
79037;BME280;68434;59.896;30.474;2023-05-10T04:07:00;102426.16;;;10.34;41.84
79037;BME280;68434;59.896;30.474;2023-05-10T04:09:29;102417.06;;;10.35;42.12
79037;BME280;68434;59.896;30.474;2023-05-10T04:11:58;102418.22;;;10.43;41.80
79037;BME280;68434;59.896;30.474;2023-05-10T04:14:31;102414.72;;;10.54;41.28
79037;BME280;68434;59.896;30.474;2023-05-10T04:16:59;102412.19;;;10.63;40.75
79037;BME280;68434;59.896;30.474;2023-05-10T04:19:29;102417.91;;;10.71;41.05
79037;BME280;68434;59.896;30.474;2023-05-10T04:21:58;102405.97;;;10.74;40.98
79037;BME280;68434;59.896;30.474;2023-05-10T04:24:26;102417.94;;;10.82;41.14
79037;BME280;68434;59.896;30.474;2023-05-10T04:26:55;102412.47;;;10.95;39.73
79037;BME280;68434;59.896;30.474;2023-05-10T04:29:23;102417.47;;;11.12;39.07
79037;BME280;68434;59.896;30.474;2023-05-10T04:31:55;102414.22;;;11.41;38.24
79037;BME280;68434;59.896;30.474;2023-05-10T04:34:22;102407.03;;;11.97;37.63
79037;BME280;68434;59.896;30.474;2023-05-10T04:36:50;102397.88;;;13.47;34.73
79037;BME280;68434;59.896;30.474;2023-05-10T04:39:19;102396.94;;;14.57;33.50
79037;BME280;68434;59.896;30.474;2023-05-10T04:42:20;102395.84;;;15.07;31.50
79037;BME280;68434;59.896;30.474;2023-05-10T04:44:47;102402.28;;;15.16;31.12
79037;BME280;68434;59.896;30.474;2023-05-10T04:47:18;102401.72;;;15.31;30.60
79037;BME280;68434;59.896;30.474;2023-05-10T04:49:46;102401.84;;;15.39;29.86
79037;BME280;68434;59.896;30.474;2023-05-10T04:52:14;102406.72;;;15.17;29.57
79037;BME280;68434;59.896;30.474;2023-05-10T04:54:43;102406.88;;;14.86;29.54
79037;BME280;68434;59.896;30.474;2023-05-10T04:57:11;102405.56;;;14.71;29.04
79037;BME280;68434;59.896;30.474;2023-05-10T04:59:41;102404.16;;;14.96;28.37
79037;BME280;68434;59.896;30.474;2023-05-10T05:02:09;102406.44;;;14.91;28.19
79037;BME280;68434;59.896;30.474;2023-05-10T05:04:36;102408.56;;;14.68;28.72
79037;BME280;68434;59.896;30.474;2023-05-10T05:07:04;102409.53;;;14.39;28.60
79037;BME280;68434;59.896;30.474;2023-05-10T05:09:34;102401.59;;;14.26;28.82
79037;BME280;68434;59.896;30.474;2023-05-10T05:12:03;102404.97;;;14.19;28.99
79037;BME280;68434;59.896;30.474;2023-05-10T05:14:30;102401.88;;;14.23;29.26
79037;BME280;68434;59.896;30.474;2023-05-10T05:16:59;102403.97;;;14.50;28.86
79037;BME280;68434;59.896;30.474;2023-05-10T05:19:27;102398.97;;;14.64;28.69
79037;BME280;68434;59.896;30.474;2023-05-10T05:21:55;102405.16;;;14.95;27.98
79037;BME280;68434;59.896;30.474;2023-05-10T05:24:22;102395.38;;;15.21;27.41
79037;BME280;68434;59.896;30.474;2023-05-10T05:26:50;102395.38;;;15.21;27.14
79037;BME280;68434;59.896;30.474;2023-05-10T05:29:17;102397.97;;;15.51;26.96
79037;BME280;68434;59.896;30.474;2023-05-10T05:31:45;102396.47;;;15.76;26.64
79037;BME280;68434;59.896;30.474;2023-05-10T05:34:14;102388.06;;;16.23;26.82
79037;BME280;68434;59.896;30.474;2023-05-10T05:36:42;102389.72;;;16.34;25.10
79037;BME280;68434;59.896;30.474;2023-05-10T05:39:10;102386.53;;;16.65;25.06
79037;BME280;68434;59.896;30.474;2023-05-10T05:41:38;102388.81;;;16.70;23.82
79037;BME280;68434;59.896;30.474;2023-05-10T05:44:08;102388.66;;;16.71;23.66
79037;BME280;68434;59.896;30.474;2023-05-10T05:46:36;102381.63;;;17.04;24.04
79037;BME280;68434;59.896;30.474;2023-05-10T05:49:04;102383.88;;;17.09;24.09
79037;BME280;68434;59.896;30.474;2023-05-10T05:51:34;102380.34;;;17.34;22.95
79037;BME280;68434;59.896;30.474;2023-05-10T05:54:01;102382.34;;;17.49;22.83
79037;BME280;68434;59.896;30.474;2023-05-10T05:56:30;102391.78;;;17.29;23.87
79037;BME280;68434;59.896;30.474;2023-05-10T05:58:58;102392.94;;;17.09;22.89
79037;BME280;68434;59.896;30.474;2023-05-10T06:01:26;102385.22;;;17.05;22.26
79037;BME280;68434;59.896;30.474;2023-05-10T06:03:53;102387.41;;;17.19;23.49
79037;BME280;68434;59.896;30.474;2023-05-10T06:06:23;102390.31;;;17.17;23.05
79037;BME280;68434;59.896;30.474;2023-05-10T06:08:53;102389.03;;;17.29;22.67
79037;BME280;68434;59.896;30.474;2023-05-10T06:11:21;102390.88;;;17.46;23.26
79037;BME280;68434;59.896;30.474;2023-05-10T06:13:49;102388.47;;;17.94;22.98
79037;BME280;68434;59.896;30.474;2023-05-10T06:16:17;102384.38;;;18.90;22.88
79037;BME280;68434;59.896;30.474;2023-05-10T06:18:45;102378.84;;;19.86;21.74
79037;BME280;68434;59.896;30.474;2023-05-10T06:21:12;102376.41;;;20.45;21.33
79037;BME280;68434;59.896;30.474;2023-05-10T06:23:41;102373.06;;;21.34;20.18
79037;BME280;68434;59.896;30.474;2023-05-10T06:26:12;102372.44;;;21.61;20.49
79037;BME280;68434;59.896;30.474;2023-05-10T06:28:40;102380.78;;;21.16;20.02
79037;BME280;68434;59.896;30.474;2023-05-10T06:31:07;102371.75;;;20.77;20.38
79037;BME280;68434;59.896;30.474;2023-05-10T06:33:37;102387.94;;;20.41;20.85
79037;BME280;68434;59.896;30.474;2023-05-10T06:36:08;102386.28;;;19.61;21.62
79037;BME280;68434;59.896;30.474;2023-05-10T06:38:35;102388.88;;;19.31;22.40
79037;BME280;68434;59.896;30.474;2023-05-10T06:41:03;102386.59;;;19.02;23.08
79037;BME280;68434;59.896;30.474;2023-05-10T06:43:33;102391.44;;;19.32;23.61
79037;BME280;68434;59.896;30.474;2023-05-10T06:46:00;102381.84;;;19.60;23.53
79037;BME280;68434;59.896;30.474;2023-05-10T06:48:28;102389.72;;;19.63;23.78
79037;BME280;68434;59.896;30.474;2023-05-10T06:50:55;102385.16;;;20.02;22.59
79037;BME280;68434;59.896;30.474;2023-05-10T06:53:23;102386.19;;;20.48;22.52
79037;BME280;68434;59.896;30.474;2023-05-10T06:55:50;102380.44;;;20.27;21.81
79037;BME280;68434;59.896;30.474;2023-05-10T06:58:18;102391.16;;;20.52;21.63
79037;BME280;68434;59.896;30.474;2023-05-10T07:00:48;102390.97;;;20.15;21.59
79037;BME280;68434;59.896;30.474;2023-05-10T07:03:16;102394.44;;;20.48;21.57
79037;BME280;68434;59.896;30.474;2023-05-10T07:05:43;102391.06;;;20.99;21.74
79037;BME280;68434;59.896;30.474;2023-05-10T07:08:11;102387.13;;;20.94;21.81
79037;BME280;68434;59.896;30.474;2023-05-10T07:10:39;102384.88;;;20.97;21.98
79037;BME280;68434;59.896;30.474;2023-05-10T07:13:07;102386.28;;;21.16;22.65
79037;BME280;68434;59.896;30.474;2023-05-10T07:15:35;102387.66;;;20.59;22.91
79037;BME280;68434;59.896;30.474;2023-05-10T07:18:04;102400.25;;;20.06;22.87
79037;BME280;68434;59.896;30.474;2023-05-10T07:20:32;102403.59;;;19.22;23.92
79037;BME280;68434;59.896;30.474;2023-05-10T07:23:00;102407.34;;;18.97;24.09
79037;BME280;68434;59.896;30.474;2023-05-10T07:25:27;102410.84;;;18.57;24.54
79037;BME280;68434;59.896;30.474;2023-05-10T07:27:55;102415.69;;;18.29;25.04
79037;BME280;68434;59.896;30.474;2023-05-10T07:30:23;102413.56;;;18.15;25.47
79037;BME280;68434;59.896;30.474;2023-05-10T07:32:51;102409.00;;;17.98;25.45
79037;BME280;68434;59.896;30.474;2023-05-10T07:35:20;102402.22;;;18.02;25.69
79037;BME280;68434;59.896;30.474;2023-05-10T07:37:51;102405.56;;;18.30;25.98
79037;BME280;68434;59.896;30.474;2023-05-10T07:40:19;102408.47;;;18.28;26.16
79037;BME280;68434;59.896;30.474;2023-05-10T07:42:46;102406.72;;;18.11;26.17
79037;BME280;68434;59.896;30.474;2023-05-10T07:45:15;102409.88;;;17.99;26.17
79037;BME280;68434;59.896;30.474;2023-05-10T07:47:42;102402.13;;;17.86;26.01
79037;BME280;68434;59.896;30.474;2023-05-10T07:50:10;102407.00;;;17.75;26.42
79037;BME280;68434;59.896;30.474;2023-05-10T07:52:39;102409.38;;;17.95;26.83
79037;BME280;68434;59.896;30.474;2023-05-10T07:55:08;102403.88;;;18.29;26.96
79037;BME280;68434;59.896;30.474;2023-05-10T07:57:36;102411.44;;;18.35;26.77
79037;BME280;68434;59.896;30.474;2023-05-10T08:00:04;102411.41;;;17.93;25.24
79037;BME280;68434;59.896;30.474;2023-05-10T08:02:40;102406.19;;;17.82;25.26
79037;BME280;68434;59.896;30.474;2023-05-10T08:05:08;102411.00;;;17.80;25.15
79037;BME280;68434;59.896;30.474;2023-05-10T08:07:36;102412.69;;;17.81;25.45
79037;BME280;68434;59.896;30.474;2023-05-10T08:10:11;102409.81;;;17.83;25.20
79037;BME280;68434;59.896;30.474;2023-05-10T08:12:39;102412.59;;;17.65;24.70
79037;BME280;68434;59.896;30.474;2023-05-10T08:15:10;102413.56;;;17.82;24.90
79037;BME280;68434;59.896;30.474;2023-05-10T08:17:38;102414.63;;;17.89;24.44
79037;BME280;68434;59.896;30.474;2023-05-10T08:20:10;102412.91;;;17.88;24.58
79037;BME280;68434;59.896;30.474;2023-05-10T08:22:38;102407.63;;;17.94;24.74
79037;BME280;68434;59.896;30.474;2023-05-10T08:25:08;102405.75;;;17.95;24.53
79037;BME280;68434;59.896;30.474;2023-05-10T08:27:37;102411.59;;;18.00;25.14
79037;BME280;68434;59.896;30.474;2023-05-10T08:30:07;102409.78;;;18.08;24.25
79037;BME280;68434;59.896;30.474;2023-05-10T08:32:35;102420.19;;;18.05;23.92
79037;BME280;68434;59.896;30.474;2023-05-10T08:35:06;102409.41;;;17.78;24.12
79037;BME280;68434;59.896;30.474;2023-05-10T08:37:34;102412.84;;;18.05;25.41
79037;BME280;68434;59.896;30.474;2023-05-10T08:40:05;102395.59;;;18.13;24.83
79037;BME280;68434;59.896;30.474;2023-05-10T08:42:36;102408.31;;;18.22;23.74
79037;BME280;68434;59.896;30.474;2023-05-10T08:45:08;102400.25;;;18.20;24.14
79037;BME280;68434;59.896;30.474;2023-05-10T08:47:37;102401.56;;;18.16;25.12
79037;BME280;68434;59.896;30.474;2023-05-10T08:50:07;102407.31;;;18.31;25.64
79037;BME280;68434;59.896;30.474;2023-05-10T08:52:38;102408.97;;;18.16;23.93
79037;BME280;68434;59.896;30.474;2023-05-10T08:55:08;102409.44;;;18.11;23.97
79037;BME280;68434;59.896;30.474;2023-05-10T08:57:38;102412.84;;;18.13;24.36
79037;BME280;68434;59.896;30.474;2023-05-10T09:00:06;102400.75;;;18.24;24.39
79037;BME280;68434;59.896;30.474;2023-05-10T09:02:37;102405.16;;;18.42;25.37
79037;BME280;68434;59.896;30.474;2023-05-10T09:05:06;102412.97;;;18.29;24.27
79037;BME280;68434;59.896;30.474;2023-05-10T09:07:34;102411.00;;;18.14;24.95
79037;BME280;68434;59.896;30.474;2023-05-10T09:10:02;102412.97;;;18.29;24.15
79037;BME280;68434;59.896;30.474;2023-05-10T09:12:30;102409.25;;;18.38;24.16
79037;BME280;68434;59.896;30.474;2023-05-10T09:15:01;102405.91;;;18.27;23.76
79037;BME280;68434;59.896;30.474;2023-05-10T09:17:31;102404.63;;;18.13;23.50
79037;BME280;68434;59.896;30.474;2023-05-10T09:19:59;102404.91;;;18.28;24.95
79037;BME280;68434;59.896;30.474;2023-05-10T09:22:27;102401.03;;;18.46;24.93
79037;BME280;68434;59.896;30.474;2023-05-10T09:25:05;102405.19;;;18.58;25.71
79037;BME280;68434;59.896;30.474;2023-05-10T09:27:33;102389.44;;;18.60;24.74
79037;BME280;68434;59.896;30.474;2023-05-10T09:30:04;102395.81;;;18.61;24.66
79037;BME280;68434;59.896;30.474;2023-05-10T09:32:37;102393.22;;;18.67;24.47
79037;BME280;68434;59.896;30.474;2023-05-10T09:35:09;102397.63;;;18.44;24.25
79037;BME280;68434;59.896;30.474;2023-05-10T09:37:39;102390.94;;;18.47;24.39
79037;BME280;68434;59.896;30.474;2023-05-10T09:40:12;102395.31;;;18.65;25.00
79037;BME280;68434;59.896;30.474;2023-05-10T09:42:41;102391.28;;;18.44;24.30
79037;BME280;68434;59.896;30.474;2023-05-10T09:45:11;102391.03;;;18.29;24.29
79037;BME280;68434;59.896;30.474;2023-05-10T09:47:39;102395.84;;;18.35;25.48
79037;BME280;68434;59.896;30.474;2023-05-10T09:50:09;102387.00;;;18.49;25.61
79037;BME280;68434;59.896;30.474;2023-05-10T09:52:47;102401.63;;;18.66;25.62
79037;BME280;68434;59.896;30.474;2023-05-10T09:55:16;102385.84;;;18.52;25.04
79037;BME280;68434;59.896;30.474;2023-05-10T09:57:46;102390.16;;;18.62;25.31
79037;BME280;68434;59.896;30.474;2023-05-10T10:00:20;102387.41;;;18.70;25.82
79037;BME280;68434;59.896;30.474;2023-05-10T10:02:55;102387.41;;;18.62;25.18
79037;BME280;68434;59.896;30.474;2023-05-10T10:05:28;102381.06;;;18.62;25.67
79037;BME280;68434;59.896;30.474;2023-05-10T10:07:59;102384.66;;;18.62;25.52
79037;BME280;68434;59.896;30.474;2023-05-10T10:10:27;102380.19;;;18.53;25.35
79037;BME280;68434;59.896;30.474;2023-05-10T10:12:55;102380.38;;;18.68;25.78
79037;BME280;68434;59.896;30.474;2023-05-10T10:15:26;102379.19;;;18.70;24.69
79037;BME280;68434;59.896;30.474;2023-05-10T10:17:56;102377.28;;;18.63;25.17
79037;BME280;68434;59.896;30.474;2023-05-10T10:20:24;102369.78;;;18.73;25.53
79037;BME280;68434;59.896;30.474;2023-05-10T10:22:54;102380.38;;;18.68;25.51
79037;BME280;68434;59.896;30.474;2023-05-10T10:25:22;102375.44;;;18.72;25.83
79037;BME280;68434;59.896;30.474;2023-05-10T10:28:00;102374.19;;;18.66;25.61
79037;BME280;68434;59.896;30.474;2023-05-10T10:30:40;102379.19;;;18.62;25.48
79037;BME280;68434;59.896;30.474;2023-05-10T10:33:33;102374.72;;;18.61;24.82
79037;BME280;68434;59.896;30.474;2023-05-10T10:36:03;102368.38;;;18.69;25.80
79037;BME280;68434;59.896;30.474;2023-05-10T10:41:30;102372.00;;;18.69;25.16
79037;BME280;68434;59.896;30.474;2023-05-10T10:44:32;102375.25;;;18.65;24.29
79037;BME280;68434;59.896;30.474;2023-05-10T10:47:06;102364.53;;;18.38;24.48
79037;BME280;68434;59.896;30.474;2023-05-10T10:49:42;102367.31;;;18.54;25.07
79037;BME280;68434;59.896;30.474;2023-05-10T10:52:16;102371.63;;;18.64;25.60
79037;BME280;68434;59.896;30.474;2023-05-10T10:54:50;102366.69;;;18.68;24.86
79037;BME280;68434;59.896;30.474;2023-05-10T10:57:20;102370.25;;;18.60;24.53
79037;BME280;68434;59.896;30.474;2023-05-10T10:59:49;102356.53;;;18.52;24.70
79037;BME280;68434;59.896;30.474;2023-05-10T11:02:45;102363.75;;;18.61;25.18
79037;BME280;68434;59.896;30.474;2023-05-10T11:05:26;102355.06;;;18.82;25.59
79037;BME280;68434;59.896;30.474;2023-05-10T11:08:07;102352.13;;;18.92;24.85
79037;BME280;68434;59.896;30.474;2023-05-10T11:10:36;102356.94;;;18.98;25.44
79037;BME280;68434;59.896;30.474;2023-05-10T11:13:05;102356.09;;;18.97;24.73
79037;BME280;68434;59.896;30.474;2023-05-10T11:15:35;102362.28;;;19.07;24.71
79037;BME280;68434;59.896;30.474;2023-05-10T11:18:29;102355.06;;;19.06;24.13
79037;BME280;68434;59.896;30.474;2023-05-10T11:20:59;102356.75;;;18.99;24.28
79037;BME280;68434;59.896;30.474;2023-05-10T11:23:32;102356.59;;;19.01;23.97
79037;BME280;68434;59.896;30.474;2023-05-10T11:26:17;102345.78;;;18.99;24.13
79037;BME280;68434;59.896;30.474;2023-05-10T11:28:49;102351.28;;;19.07;24.21
79037;BME280;68434;59.896;30.474;2023-05-10T11:31:18;102337.91;;;18.96;23.25
79037;BME280;68434;59.896;30.474;2023-05-10T11:33:48;102335.34;;;19.03;23.52
79037;BME280;68434;59.896;30.474;2023-05-10T11:36:17;102336.53;;;18.92;23.16
79037;BME280;68434;59.896;30.474;2023-05-10T11:38:46;102338.59;;;18.82;22.58
79037;BME280;68434;59.896;30.474;2023-05-10T11:41:17;102339.09;;;18.86;23.01
79037;BME280;68434;59.896;30.474;2023-05-10T11:43:46;102327.63;;;18.98;23.07
79037;BME280;68434;59.896;30.474;2023-05-10T11:46:15;102325.06;;;19.05;22.98
79037;BME280;68434;59.896;30.474;2023-05-10T11:48:43;102328.50;;;18.99;22.76
79037;BME280;68434;59.896;30.474;2023-05-10T11:51:13;102333.13;;;19.06;22.91
79037;BME280;68434;59.896;30.474;2023-05-10T11:53:41;102312.03;;;18.99;22.80
79037;BME280;68434;59.896;30.474;2023-05-10T11:56:09;102324.03;;;19.14;22.95
79037;BME280;68434;59.896;30.474;2023-05-10T11:58:38;102311.31;;;19.13;22.49
79037;BME280;68434;59.896;30.474;2023-05-10T12:01:07;102322.16;;;19.06;22.66
79037;BME280;68434;59.896;30.474;2023-05-10T12:03:36;102314.59;;;19.16;23.51
79037;BME280;68434;59.896;30.474;2023-05-10T12:06:06;102313.56;;;19.25;23.24
79037;BME280;68434;59.896;30.474;2023-05-10T12:08:36;102307.56;;;19.14;23.04
79037;BME280;68434;59.896;30.474;2023-05-10T12:11:05;102305.34;;;19.09;22.66
79037;BME280;68434;59.896;30.474;2023-05-10T12:13:38;102306.00;;;19.11;23.41
79037;BME280;68434;59.896;30.474;2023-05-10T12:16:13;102307.22;;;19.09;22.31
79037;BME280;68434;59.896;30.474;2023-05-10T12:18:41;102303.09;;;19.13;22.21
79037;BME280;68434;59.896;30.474;2023-05-10T12:21:10;102304.13;;;19.12;21.72
79037;BME280;68434;59.896;30.474;2023-05-10T12:23:40;102308.25;;;19.08;21.98
79037;BME280;68434;59.896;30.474;2023-05-10T12:26:09;102304.66;;;19.07;22.15
79037;BME280;68434;59.896;30.474;2023-05-10T12:28:37;102303.97;;;19.13;22.37
79037;BME280;68434;59.896;30.474;2023-05-10T12:31:06;102296.94;;;19.11;22.80
79037;BME280;68434;59.896;30.474;2023-05-10T12:33:38;102295.91;;;19.20;22.55
79037;BME280;68434;59.896;30.474;2023-05-10T12:36:08;102305.66;;;19.14;21.91
79037;BME280;68434;59.896;30.474;2023-05-10T12:41:37;102299.00;;;19.09;21.72
79037;BME280;68434;59.896;30.474;2023-05-10T12:44:05;102293.50;;;19.09;22.04
79037;BME280;68434;59.896;30.474;2023-05-10T12:46:33;102300.34;;;19.21;22.46
79037;BME280;68434;59.896;30.474;2023-05-10T12:49:00;102298.13;;;19.24;22.23
79037;BME280;68434;59.896;30.474;2023-05-10T12:51:28;102302.59;;;18.93;21.65
79037;BME280;68434;59.896;30.474;2023-05-10T12:53:56;102299.84;;;18.93;21.79
79037;BME280;68434;59.896;30.474;2023-05-10T12:56:24;102295.59;;;18.99;21.53
79037;BME280;68434;59.896;30.474;2023-05-10T12:58:53;102294.53;;;18.92;22.05
79037;BME280;68434;59.896;30.474;2023-05-10T13:01:24;102296.28;;;18.93;22.23
79037;BME280;68434;59.896;30.474;2023-05-10T13:03:51;102289.56;;;19.03;22.66